createdAt,value
2022-12-08T00:00:55.608Z,8.48
2022-12-08T00:01:57.558Z,8.48
2022-12-08T00:02:59.507Z,8.50
2022-12-08T00:04:03.308Z,8.49
2022-12-08T00:05:24.133Z,8.47
2022-12-08T00:07:01.525Z,8.50
2022-12-08T00:08:22.163Z,8.44
2022-12-08T00:09:26.410Z,8.45
2022-12-08T00:10:48.328Z,8.43
2022-12-08T00:11:56.352Z,8.39
2022-12-08T00:12:58.009Z,8.39
2022-12-08T00:14:00.685Z,8.42
2022-12-08T00:15:02.972Z,8.38
2022-12-08T00:16:05.077Z,8.43
2022-12-08T00:17:08.632Z,8.43
2022-12-08T00:18:10.310Z,8.44
2022-12-08T00:19:12.001Z,8.43
2022-12-08T00:20:13.699Z,8.44
2022-12-08T00:21:15.500Z,8.39
2022-12-08T00:22:17.216Z,8.36
2022-12-08T00:23:18.859Z,8.37
2022-12-08T00:24:22.028Z,8.35
2022-12-08T00:25:23.717Z,8.38
2022-12-08T00:26:25.402Z,8.34
2022-12-08T00:27:27.069Z,8.40
2022-12-08T00:28:28.720Z,8.32
2022-12-08T00:29:30.550Z,8.39
2022-12-08T00:30:32.223Z,8.42
2022-12-08T00:31:34.242Z,8.37
2022-12-08T00:32:37.815Z,8.43
2022-12-08T00:33:39.557Z,8.40
2022-12-08T00:34:41.241Z,8.38
2022-12-08T00:35:43.392Z,8.43
2022-12-08T00:36:45.340Z,8.46
2022-12-08T00:37:47.101Z,8.38
2022-12-08T00:38:48.814Z,8.47
2022-12-08T00:39:50.644Z,8.47
2022-12-08T00:40:52.312Z,8.47
2022-12-08T00:42:12.434Z,8.45
2022-12-08T00:43:14.647Z,8.48
2022-12-08T00:44:19.044Z,8.48
2022-12-08T00:45:21.086Z,8.37
2022-12-08T00:46:22.842Z,8.44
2022-12-08T00:47:25.068Z,8.43
2022-12-08T00:48:26.879Z,8.40
2022-12-08T00:49:28.576Z,8.40
2022-12-08T00:50:30.342Z,8.36
2022-12-08T00:51:32.724Z,8.33
2022-12-08T00:52:34.483Z,8.33
2022-12-08T00:53:36.172Z,8.23
2022-12-08T00:54:37.909Z,8.20
2022-12-08T00:55:39.562Z,8.23
2022-12-08T00:56:41.310Z,8.25
2022-12-08T00:57:43.015Z,8.26
2022-12-08T00:58:44.669Z,8.25
2022-12-08T00:59:46.400Z,8.18
2022-12-08T01:00:48.174Z,8.23
2022-12-08T01:01:50.074Z,8.20
2022-12-08T01:02:51.881Z,8.15
2022-12-08T01:03:53.641Z,8.18
2022-12-08T01:04:55.292Z,8.12
2022-12-08T01:05:57.003Z,8.02
2022-12-08T01:06:58.681Z,7.81
2022-12-08T01:08:00.429Z,7.77
2022-12-08T01:09:04.464Z,7.75
2022-12-08T01:10:07.267Z,7.75
2022-12-08T01:11:16.582Z,7.68
2022-12-08T01:12:18.472Z,7.67
2022-12-08T01:13:20.298Z,7.78
2022-12-08T01:14:21.988Z,7.73
2022-12-08T01:15:23.688Z,7.83
2022-12-08T01:16:28.530Z,7.86
2022-12-08T01:17:30.253Z,7.89
2022-12-08T01:18:32.400Z,7.87
2022-12-08T01:19:34.818Z,7.93
2022-12-08T01:20:36.516Z,7.91
2022-12-08T01:21:38.229Z,7.95
2022-12-08T01:22:39.895Z,7.95
2022-12-08T01:23:41.574Z,7.98
2022-12-08T01:24:43.325Z,8.04
2022-12-08T01:25:45.585Z,8.06
2022-12-08T01:26:48.667Z,8.08
2022-12-08T01:27:52.874Z,8.13
2022-12-08T01:28:54.735Z,8.13
2022-12-08T01:29:56.457Z,8.15
2022-12-08T01:30:59.402Z,8.17
2022-12-08T01:32:01.203Z,8.19
2022-12-08T01:33:02.906Z,8.17
2022-12-08T01:34:05.079Z,8.22
2022-12-08T01:35:06.960Z,8.23
2022-12-08T01:36:18.562Z,8.24
2022-12-08T01:37:20.940Z,8.25
2022-12-08T01:38:23.077Z,8.26
2022-12-08T01:39:24.812Z,8.27
2022-12-08T01:40:26.539Z,8.25
2022-12-08T01:41:31.671Z,8.26
2022-12-08T01:42:34.623Z,8.26
2022-12-08T01:43:55.236Z,8.25
2022-12-08T01:45:01.221Z,8.25
2022-12-08T01:46:02.990Z,8.26
2022-12-08T01:47:04.788Z,8.28
2022-12-08T01:48:35.637Z,8.27
2022-12-08T01:49:37.640Z,8.24
2022-12-08T01:50:41.436Z,8.24
2022-12-08T01:51:59.185Z,8.29
2022-12-08T01:53:14.728Z,8.28
2022-12-08T01:54:17.280Z,8.27
2022-12-08T01:55:44.137Z,8.27
2022-12-08T01:57:04.212Z,8.27
2022-12-08T01:58:13.588Z,8.25
2022-12-08T01:59:15.733Z,8.17
2022-12-08T02:00:19.643Z,8.16
2022-12-08T02:01:21.640Z,8.14
2022-12-08T02:02:26.672Z,8.10
2022-12-08T02:03:41.363Z,8.16
2022-12-08T02:04:43.121Z,8.14
2022-12-08T02:05:46.217Z,8.15
2022-12-08T02:06:49.801Z,8.16
2022-12-08T02:07:52.843Z,8.16
2022-12-08T02:08:55.364Z,8.06
2022-12-08T02:09:57.807Z,8.13
2022-12-08T02:10:59.483Z,8.13
2022-12-08T02:12:01.388Z,8.16
2022-12-08T02:13:06.069Z,8.16
2022-12-08T02:14:11.751Z,8.18
2022-12-08T02:15:14.847Z,8.20
2022-12-08T02:16:42.249Z,8.22
2022-12-08T02:18:13.972Z,8.21
2022-12-08T02:19:30.836Z,8.19
2022-12-08T02:20:55.328Z,8.16
2022-12-08T02:22:09.208Z,8.14
2022-12-08T02:23:31.890Z,8.01
2022-12-08T02:25:11.093Z,8.12
2022-12-08T02:26:37.241Z,8.10
2022-12-08T02:28:36.149Z,8.07
2022-12-08T02:29:53.416Z,8.08
2022-12-08T02:31:18.396Z,8.09
2022-12-08T02:32:35.177Z,8.09
2022-12-08T02:34:18.636Z,8.09
2022-12-08T02:35:43.421Z,8.01
2022-12-08T02:36:50.865Z,8.12
2022-12-08T02:38:46.387Z,8.11
2022-12-08T02:40:15.072Z,8.12
2022-12-08T02:41:31.985Z,8.12
2022-12-08T02:42:39.639Z,8.14
2022-12-08T02:43:55.485Z,8.11
2022-12-08T02:45:21.704Z,7.91
2022-12-08T02:46:53.693Z,8.14
2022-12-08T02:47:55.928Z,8.17
2022-12-08T02:48:59.264Z,8.17
2022-12-08T02:50:01.233Z,8.19
2022-12-08T02:51:03.429Z,8.21
2022-12-08T02:52:13.935Z,8.22
2022-12-08T02:54:15.923Z,8.22
2022-12-08T02:55:29.209Z,8.28
2022-12-08T02:56:49.697Z,8.27
2022-12-08T02:58:09.811Z,8.27
2022-12-08T02:59:17.299Z,8.28
2022-12-08T03:00:21.917Z,8.27
2022-12-08T03:01:31.029Z,8.28
2022-12-08T03:02:38.838Z,8.33
2022-12-08T03:03:52.423Z,8.34
2022-12-08T03:04:58.815Z,8.32
2022-12-08T03:06:35.026Z,8.36
2022-12-08T03:08:12.825Z,8.36
2022-12-08T03:09:21.118Z,8.41
2022-12-08T03:10:29.947Z,8.42
2022-12-08T03:11:35.850Z,8.44
2022-12-08T03:12:43.858Z,8.39
2022-12-08T03:13:49.267Z,8.48
2022-12-08T03:14:54.172Z,8.49
2022-12-08T03:15:56.309Z,8.49
2022-12-08T03:17:00.042Z,8.50
2022-12-08T03:18:01.742Z,8.50
2022-12-08T03:19:13.758Z,8.48
2022-12-08T03:20:20.980Z,8.51
2022-12-08T03:21:23.360Z,8.52
2022-12-08T03:22:27.428Z,8.56
2022-12-08T03:23:30.805Z,8.55
2022-12-08T03:24:36.963Z,8.57
2022-12-08T03:25:47.379Z,8.57
2022-12-08T03:26:54.870Z,8.57
2022-12-08T03:27:56.840Z,8.59
2022-12-08T03:28:58.856Z,8.58
2022-12-08T03:30:01.694Z,8.52
2022-12-08T03:31:07.287Z,8.62
2022-12-08T03:32:11.728Z,8.63
2022-12-08T03:33:23.917Z,8.65
2022-12-08T03:34:29.920Z,8.63
2022-12-08T03:35:35.800Z,8.67
2022-12-08T03:36:38.134Z,8.62
2022-12-08T03:37:40.362Z,8.61
2022-12-08T03:38:45.314Z,8.68
2022-12-08T03:39:47.213Z,8.66
2022-12-08T03:41:07.710Z,8.55
2022-12-08T03:42:09.389Z,8.60
2022-12-08T03:43:11.083Z,8.60
2022-12-08T03:44:13.027Z,8.54
2022-12-08T03:45:14.713Z,8.58
2022-12-08T03:46:17.984Z,8.59
2022-12-08T03:47:19.715Z,8.51
2022-12-08T03:48:21.405Z,8.50
2022-12-08T03:49:23.183Z,8.50
2022-12-08T03:50:25.323Z,8.50
2022-12-08T03:51:27.421Z,8.50
2022-12-08T03:52:29.117Z,8.41
2022-12-08T03:53:30.785Z,8.44
2022-12-08T03:54:32.496Z,8.42
2022-12-08T03:55:34.153Z,8.39
2022-12-08T03:56:38.558Z,8.41
2022-12-08T03:57:40.257Z,8.38
2022-12-08T03:58:43.612Z,8.38
2022-12-08T03:59:45.278Z,8.18
2022-12-08T04:00:46.943Z,8.35
2022-12-08T04:01:48.722Z,8.34
2022-12-08T04:02:50.455Z,8.31
2022-12-08T04:03:52.276Z,8.31
2022-12-08T04:04:53.939Z,8.31
2022-12-08T04:05:55.601Z,8.32
2022-12-08T04:06:57.431Z,8.31
2022-12-08T04:07:59.197Z,8.28
2022-12-08T04:09:01.008Z,8.32
2022-12-08T04:10:03.007Z,8.32
2022-12-08T04:11:06.611Z,8.34
2022-12-08T04:12:09.561Z,8.32
2022-12-08T04:13:11.256Z,8.34
2022-12-08T04:14:13.032Z,8.33
2022-12-08T04:15:14.705Z,8.24
2022-12-08T04:16:19.248Z,8.22
2022-12-08T04:17:21.000Z,8.26
2022-12-08T04:18:23.163Z,8.28
2022-12-08T04:19:24.904Z,8.35
2022-12-08T04:20:26.594Z,8.34
2022-12-08T04:21:28.358Z,8.31
2022-12-08T04:22:30.079Z,8.34
2022-12-08T04:23:32.040Z,8.35
2022-12-08T04:24:33.799Z,8.32
2022-12-08T04:25:36.890Z,8.36
2022-12-08T04:26:38.565Z,8.31
2022-12-08T04:27:40.288Z,8.32
2022-12-08T04:28:42.068Z,8.35
2022-12-08T04:29:43.744Z,8.37
2022-12-08T04:30:45.787Z,8.33
2022-12-08T04:31:47.485Z,8.40
2022-12-08T04:32:49.181Z,8.42
2022-12-08T04:33:50.891Z,8.24
2022-12-08T04:34:52.553Z,8.39
2022-12-08T04:35:54.257Z,8.40
2022-12-08T04:36:55.914Z,8.31
2022-12-08T04:37:57.787Z,8.21
2022-12-08T04:39:00.030Z,8.23
2022-12-08T04:40:01.909Z,8.16
2022-12-08T04:41:03.890Z,8.17
2022-12-08T04:42:05.627Z,8.15
2022-12-08T04:43:07.314Z,8.08
2022-12-08T04:44:08.999Z,8.11
2022-12-08T04:45:11.074Z,7.99
2022-12-08T04:46:13.007Z,8.02
2022-12-08T04:47:14.784Z,7.94
2022-12-08T04:48:16.987Z,7.96
2022-12-08T04:49:18.687Z,7.95
2022-12-08T04:50:20.344Z,7.94
2022-12-08T04:51:22.283Z,7.93
2022-12-08T04:52:23.963Z,7.96
2022-12-08T04:53:26.907Z,7.98
2022-12-08T04:54:28.576Z,8.00
2022-12-08T04:55:30.297Z,8.01
2022-12-08T04:56:31.987Z,7.93
2022-12-08T04:57:33.789Z,7.90
2022-12-08T04:58:35.475Z,7.88
2022-12-08T04:59:37.265Z,7.82
2022-12-08T05:00:38.981Z,7.92
2022-12-08T05:01:40.767Z,7.90
2022-12-08T05:02:42.702Z,7.96
2022-12-08T05:03:44.506Z,7.88
2022-12-08T05:04:46.173Z,7.93
2022-12-08T05:05:47.921Z,8.02
2022-12-08T05:06:49.595Z,8.04
2022-12-08T05:07:51.364Z,8.05
2022-12-08T05:08:53.125Z,8.04
2022-12-08T05:09:54.956Z,8.06
2022-12-08T05:11:08.616Z,8.08
2022-12-08T05:12:10.378Z,8.09
2022-12-08T05:13:12.040Z,8.09
2022-12-08T05:14:15.598Z,8.06
2022-12-08T05:15:17.406Z,8.11
2022-12-08T05:16:19.160Z,8.18
2022-12-08T05:17:20.849Z,8.09
2022-12-08T05:18:22.497Z,8.17
2022-12-08T05:19:24.417Z,8.19
2022-12-08T05:20:26.065Z,8.22
2022-12-08T05:21:27.733Z,8.23
2022-12-08T05:22:29.417Z,8.25
2022-12-08T05:23:31.089Z,8.23
2022-12-08T05:24:32.816Z,8.28
2022-12-08T05:25:34.475Z,8.27
2022-12-08T05:26:36.271Z,8.26
2022-12-08T05:27:37.972Z,8.28
2022-12-08T05:28:41.825Z,8.32
2022-12-08T05:29:44.644Z,8.34
2022-12-08T05:30:46.590Z,8.32
2022-12-08T05:31:48.403Z,8.32
2022-12-08T05:32:50.103Z,8.35
2022-12-08T05:33:52.512Z,8.36
2022-12-08T05:34:54.249Z,8.37
2022-12-08T05:35:56.023Z,8.38
2022-12-08T05:36:57.733Z,8.35
2022-12-08T05:37:59.424Z,8.35
2022-12-08T05:39:01.154Z,8.32
2022-12-08T05:40:03.988Z,8.33
2022-12-08T05:41:07.012Z,8.39
2022-12-08T05:42:08.705Z,8.38
2022-12-08T05:43:11.013Z,8.36
2022-12-08T05:44:12.708Z,8.35
2022-12-08T05:45:14.375Z,8.33
2022-12-08T05:46:17.042Z,8.23
2022-12-08T05:47:18.813Z,8.29
2022-12-08T05:48:20.533Z,8.33
2022-12-08T05:49:22.203Z,8.33
2022-12-08T05:50:23.909Z,8.33
2022-12-08T05:51:25.699Z,8.31
2022-12-08T05:52:27.669Z,8.30
2022-12-08T05:53:29.496Z,8.34
2022-12-08T05:54:31.228Z,8.34
2022-12-08T05:55:32.873Z,8.33
2022-12-08T05:56:34.601Z,8.30
2022-12-08T05:57:36.299Z,8.26
2022-12-08T05:58:38.011Z,8.27
2022-12-08T05:59:39.810Z,8.22
2022-12-08T06:00:42.199Z,8.22
2022-12-08T06:01:44.667Z,8.24
2022-12-08T06:02:46.639Z,8.21
2022-12-08T06:03:49.024Z,8.19
2022-12-08T06:04:50.682Z,8.15
2022-12-08T06:05:52.426Z,8.18
2022-12-08T06:06:54.162Z,8.18
2022-12-08T06:07:55.858Z,8.19
2022-12-08T06:08:57.589Z,8.23
2022-12-08T06:09:59.272Z,8.22
2022-12-08T06:11:01.108Z,8.20
2022-12-08T06:12:02.806Z,8.22
2022-12-08T06:13:04.506Z,8.22
2022-12-08T06:14:11.200Z,8.22
2022-12-08T06:15:12.875Z,8.24
2022-12-08T06:16:14.657Z,8.23
2022-12-08T06:17:16.366Z,8.17
2022-12-08T06:18:18.057Z,8.27
2022-12-08T06:19:20.099Z,8.30
2022-12-08T06:20:21.766Z,8.27
2022-12-08T06:21:23.854Z,8.26
2022-12-08T06:22:25.709Z,8.34
2022-12-08T06:23:27.385Z,8.35
2022-12-08T06:24:29.054Z,8.33
2022-12-08T06:25:30.855Z,8.34
2022-12-08T06:26:32.557Z,8.38
2022-12-08T06:27:34.577Z,8.34
2022-12-08T06:28:37.022Z,8.42
2022-12-08T06:29:38.673Z,8.43
2022-12-08T06:30:40.319Z,8.46
2022-12-08T06:31:42.016Z,8.46
2022-12-08T06:32:44.219Z,8.47
2022-12-08T06:33:46.481Z,8.46
2022-12-08T06:34:48.143Z,8.48
2022-12-08T06:35:49.836Z,8.50
2022-12-08T06:36:51.499Z,8.46
2022-12-08T06:37:53.213Z,8.45
2022-12-08T06:38:55.477Z,8.54
2022-12-08T06:39:57.221Z,8.52
2022-12-08T06:40:59.532Z,8.54
2022-12-08T06:42:20.005Z,8.53
2022-12-08T06:43:22.072Z,8.55
2022-12-08T06:44:23.872Z,8.54
2022-12-08T06:45:25.581Z,8.58
2022-12-08T06:46:27.382Z,8.63
2022-12-08T06:47:29.110Z,8.66
2022-12-08T06:48:30.923Z,8.68
2022-12-08T06:49:32.621Z,8.67
2022-12-08T06:50:35.153Z,8.70
2022-12-08T06:51:36.816Z,8.70
2022-12-08T06:52:47.245Z,8.71
2022-12-08T06:53:54.875Z,8.72
2022-12-08T06:54:56.617Z,8.77
2022-12-08T06:55:59.649Z,8.71
2022-12-08T06:57:01.580Z,8.76
2022-12-08T06:58:03.255Z,8.81
2022-12-08T06:59:05.075Z,8.81
2022-12-08T07:00:08.190Z,8.80
2022-12-08T07:01:13.550Z,8.85
2022-12-08T07:02:15.348Z,8.87
2022-12-08T07:03:17.145Z,8.90
2022-12-08T07:04:18.825Z,8.91
2022-12-08T07:05:20.526Z,8.92
2022-12-08T07:06:24.051Z,8.93
2022-12-08T07:07:25.743Z,8.92
2022-12-08T07:08:27.539Z,8.97
2022-12-08T07:09:29.374Z,8.98
2022-12-08T07:10:31.419Z,8.97
2022-12-08T07:11:33.081Z,8.94
2022-12-08T07:12:34.797Z,8.98
2022-12-08T07:13:36.812Z,8.98
2022-12-08T07:14:38.457Z,8.98
2022-12-08T07:15:40.097Z,9.02
2022-12-08T07:16:41.856Z,9.03
2022-12-08T07:17:43.585Z,9.02
2022-12-08T07:18:45.282Z,8.97
2022-12-08T07:19:46.931Z,8.94
2022-12-08T07:20:48.578Z,8.91
2022-12-08T07:21:50.252Z,8.98
2022-12-08T07:22:53.030Z,8.94
2022-12-08T07:23:57.914Z,8.98
2022-12-08T07:24:59.815Z,9.02
2022-12-08T07:26:07.933Z,9.04
2022-12-08T07:27:09.576Z,9.05
2022-12-08T07:28:11.468Z,9.05
2022-12-08T07:29:13.152Z,9.05
2022-12-08T07:30:15.179Z,8.96
2022-12-08T07:31:20.145Z,9.06
2022-12-08T07:32:21.852Z,9.09
2022-12-08T07:33:24.862Z,9.10
2022-12-08T07:34:26.535Z,9.11
2022-12-08T07:35:28.297Z,9.10
2022-12-08T07:36:30.116Z,9.13
2022-12-08T07:37:33.612Z,9.15
2022-12-08T07:38:35.625Z,9.12
2022-12-08T07:39:37.328Z,9.15
2022-12-08T07:40:39.476Z,9.16
2022-12-08T07:41:41.145Z,9.13
2022-12-08T07:42:42.805Z,9.11
2022-12-08T07:43:45.184Z,9.12
2022-12-08T07:44:47.184Z,9.13
2022-12-08T07:45:49.992Z,9.12
2022-12-08T07:46:51.735Z,9.12
2022-12-08T07:47:53.389Z,9.13
2022-12-08T07:48:55.816Z,9.17
2022-12-08T07:49:57.515Z,9.20
2022-12-08T07:51:05.867Z,9.16
2022-12-08T07:52:07.569Z,9.13
2022-12-08T07:53:09.267Z,9.14
2022-12-08T07:54:12.557Z,9.18
2022-12-08T07:55:14.251Z,9.19
2022-12-08T07:56:16.061Z,9.20
2022-12-08T07:57:17.751Z,9.21
2022-12-08T07:58:19.411Z,9.22
2022-12-08T07:59:21.421Z,9.20
2022-12-08T08:00:23.334Z,9.23
2022-12-08T08:01:33.350Z,9.25
2022-12-08T08:02:35.233Z,9.25
2022-12-08T08:03:37.012Z,9.18
2022-12-08T08:04:38.812Z,9.23
2022-12-08T08:05:40.564Z,9.22
2022-12-08T08:06:42.231Z,9.16
2022-12-08T08:07:44.715Z,9.22
2022-12-08T08:08:46.731Z,9.23
2022-12-08T08:09:48.390Z,9.26
2022-12-08T08:10:50.083Z,9.23
2022-12-08T08:12:07.464Z,9.28
2022-12-08T08:13:13.622Z,9.27
2022-12-08T08:14:15.363Z,9.26
2022-12-08T08:15:18.029Z,9.26
2022-12-08T08:16:20.409Z,9.26
2022-12-08T08:17:22.308Z,9.30
2022-12-08T08:18:24.101Z,9.32
2022-12-08T08:19:28.323Z,9.23
2022-12-08T08:20:29.984Z,9.16
2022-12-08T08:21:46.960Z,9.09
2022-12-08T08:22:50.421Z,9.08
2022-12-08T08:23:52.099Z,9.12
2022-12-08T08:24:54.578Z,9.15
2022-12-08T08:26:00.569Z,9.18
2022-12-08T08:27:02.278Z,9.19
2022-12-08T08:28:03.955Z,9.21
2022-12-08T08:29:05.648Z,9.24
2022-12-08T08:30:11.339Z,9.24
2022-12-08T08:31:14.766Z,9.20
2022-12-08T08:32:16.563Z,9.22
2022-12-08T08:33:18.238Z,9.26
2022-12-08T08:34:19.938Z,9.29
2022-12-08T08:35:21.608Z,9.30
2022-12-08T08:36:23.503Z,9.33
2022-12-08T08:37:25.319Z,9.24
2022-12-08T08:38:27.633Z,9.28
2022-12-08T08:39:30.376Z,9.29
2022-12-08T08:40:32.076Z,9.26
2022-12-08T08:41:35.460Z,9.35
2022-12-08T08:42:37.213Z,9.34
2022-12-08T08:43:39.133Z,9.40
2022-12-08T08:44:40.878Z,9.36
2022-12-08T08:45:42.532Z,9.43
2022-12-08T08:46:44.308Z,9.43
2022-12-08T08:47:46.119Z,9.40
2022-12-08T08:48:47.831Z,9.42
2022-12-08T08:49:49.518Z,9.44
2022-12-08T08:50:51.209Z,9.48
2022-12-08T08:51:52.904Z,9.43
2022-12-08T08:52:54.551Z,9.46
2022-12-08T08:53:57.158Z,9.49
2022-12-08T08:54:58.871Z,9.45
2022-12-08T08:56:02.785Z,9.42
2022-12-08T08:57:04.835Z,9.47
2022-12-08T08:58:06.516Z,9.53
2022-12-08T08:59:09.437Z,9.52
2022-12-08T09:00:11.890Z,9.50
2022-12-08T09:01:28.352Z,9.56
2022-12-08T09:02:30.105Z,9.47
2022-12-08T09:03:31.892Z,9.49
2022-12-08T09:04:33.615Z,9.49
2022-12-08T09:05:35.351Z,9.53
2022-12-08T09:06:37.264Z,9.58
2022-12-08T09:07:39.107Z,9.63
2022-12-08T09:08:42.062Z,9.68
2022-12-08T09:09:43.937Z,9.56
2022-12-08T09:10:45.686Z,9.73
2022-12-08T09:11:47.367Z,9.78
2022-12-08T09:12:49.363Z,9.69
2022-12-08T09:13:52.390Z,9.82
2022-12-08T09:14:54.109Z,9.88
2022-12-08T09:15:55.811Z,9.93
2022-12-08T09:16:57.579Z,9.94
2022-12-08T09:17:59.255Z,9.98
2022-12-08T09:19:01.034Z,10.07
2022-12-08T09:20:03.197Z,10.09
2022-12-08T09:21:15.165Z,10.16
2022-12-08T09:22:16.843Z,10.18
2022-12-08T09:23:18.561Z,10.22
2022-12-08T09:24:20.271Z,10.23
2022-12-08T09:25:21.941Z,10.10
2022-12-08T09:26:24.643Z,10.02
2022-12-08T09:27:26.315Z,9.95
2022-12-08T09:28:27.982Z,9.75
2022-12-08T09:29:35.390Z,9.67
2022-12-08T09:30:37.767Z,9.68
2022-12-08T09:31:39.643Z,9.59
2022-12-08T09:32:41.370Z,9.68
2022-12-08T09:33:43.525Z,9.66
2022-12-08T09:34:50.465Z,9.58
2022-12-08T09:35:53.655Z,9.54
2022-12-08T09:36:55.323Z,9.58
2022-12-08T09:37:57.022Z,9.59
2022-12-08T09:38:58.733Z,9.40
2022-12-08T09:40:00.511Z,9.40
2022-12-08T09:41:04.480Z,9.48
2022-12-08T09:42:07.548Z,9.54
2022-12-08T09:43:15.119Z,9.60
2022-12-08T09:44:35.347Z,9.64
2022-12-08T09:45:37.990Z,9.72
2022-12-08T09:46:40.509Z,9.69
2022-12-08T09:47:52.660Z,9.58
2022-12-08T09:48:58.412Z,9.44
2022-12-08T09:50:07.902Z,9.45
2022-12-08T09:51:11.485Z,9.50
2022-12-08T09:52:22.702Z,9.54
2022-12-08T09:53:32.166Z,9.62
2022-12-08T09:54:37.155Z,9.68
2022-12-08T09:55:50.847Z,9.79
2022-12-08T09:56:56.496Z,9.66
2022-12-08T09:58:02.689Z,9.70
2022-12-08T09:59:09.055Z,9.78
2022-12-08T10:00:14.500Z,9.91
2022-12-08T10:01:17.102Z,9.96
2022-12-08T10:02:30.296Z,10.04
2022-12-08T10:03:31.988Z,10.06
2022-12-08T10:04:38.462Z,10.06
2022-12-08T10:05:47.900Z,10.10
2022-12-08T10:07:18.054Z,9.88
2022-12-08T10:08:29.343Z,9.82
2022-12-08T10:09:46.366Z,9.81
2022-12-08T10:10:57.445Z,9.86
2022-12-08T10:12:27.118Z,9.90
2022-12-08T10:13:39.905Z,9.97
2022-12-08T10:14:50.060Z,9.99
2022-12-08T10:16:24.269Z,10.07
2022-12-08T10:17:34.636Z,10.06
2022-12-08T10:18:37.943Z,10.14
2022-12-08T10:19:41.062Z,10.15
2022-12-08T10:20:45.309Z,10.15
2022-12-08T10:21:47.336Z,10.16
2022-12-08T10:23:24.204Z,10.19
2022-12-08T10:24:37.416Z,10.18
2022-12-08T10:25:47.735Z,10.21
2022-12-08T10:26:49.747Z,10.17
2022-12-08T10:27:54.181Z,10.16
2022-12-08T10:29:01.337Z,10.14
2022-12-08T10:30:15.684Z,10.13
2022-12-08T10:31:21.624Z,10.13
2022-12-08T10:32:29.387Z,10.16
2022-12-08T10:33:32.730Z,10.18
2022-12-08T10:34:34.424Z,10.22
2022-12-08T10:36:05.000Z,10.18
2022-12-08T10:37:10.169Z,10.24
2022-12-08T10:38:19.793Z,10.18
2022-12-08T10:39:40.770Z,10.19
2022-12-08T10:40:45.938Z,10.21
2022-12-08T10:41:47.667Z,10.22
2022-12-08T10:42:53.589Z,10.23
2022-12-08T10:44:01.690Z,10.21
2022-12-08T10:45:09.560Z,10.13
2022-12-08T10:46:22.275Z,10.15
2022-12-08T10:47:26.622Z,10.17
2022-12-08T10:48:33.378Z,10.23
2022-12-08T10:49:36.185Z,10.21
2022-12-08T10:50:46.778Z,10.14
2022-12-08T10:51:48.430Z,10.11
2022-12-08T10:53:02.083Z,10.12
2022-12-08T10:54:06.266Z,10.15
2022-12-08T10:55:20.368Z,10.22
2022-12-08T10:56:27.266Z,10.24
2022-12-08T10:57:28.961Z,10.24
2022-12-08T10:58:42.848Z,10.28
2022-12-08T10:59:44.815Z,10.28
2022-12-08T11:00:46.762Z,10.31
2022-12-08T11:01:50.128Z,10.30
2022-12-08T11:02:56.039Z,10.18
2022-12-08T11:04:04.340Z,10.22
2022-12-08T11:05:07.913Z,10.16
2022-12-08T11:06:15.569Z,10.24
2022-12-08T11:07:23.014Z,10.17
2022-12-08T11:08:25.826Z,10.25
2022-12-08T11:09:46.942Z,10.30
2022-12-08T11:10:48.828Z,10.32
2022-12-08T11:12:06.380Z,10.27
2022-12-08T11:13:18.870Z,10.25
2022-12-08T11:14:29.422Z,10.31
2022-12-08T11:15:36.482Z,10.35
2022-12-08T11:16:42.420Z,10.35
2022-12-08T11:17:46.001Z,10.33
2022-12-08T11:18:56.731Z,10.36
2022-12-08T11:20:09.112Z,10.39
2022-12-08T11:21:14.789Z,10.49
2022-12-08T11:22:26.128Z,10.47
2022-12-08T11:23:28.440Z,10.51
2022-12-08T11:24:33.491Z,10.43
2022-12-08T11:25:39.237Z,10.33
2022-12-08T11:26:46.434Z,10.31
2022-12-08T11:27:50.881Z,10.30
2022-12-08T11:28:52.615Z,10.37
2022-12-08T11:29:54.379Z,10.35
2022-12-08T11:31:01.655Z,10.46
2022-12-08T11:32:14.054Z,10.51
2022-12-08T11:33:15.738Z,10.52
2022-12-08T11:34:30.681Z,10.49
2022-12-08T11:35:37.252Z,10.60
2022-12-08T11:36:39.597Z,10.63
2022-12-08T11:37:43.582Z,10.62
2022-12-08T11:38:50.618Z,10.69
2022-12-08T11:39:56.459Z,10.70
2022-12-08T11:41:12.278Z,10.72
2022-12-08T11:42:22.515Z,10.72
2022-12-08T11:43:55.491Z,10.73
2022-12-08T11:45:06.324Z,10.78
2022-12-08T11:46:27.632Z,10.78
2022-12-08T11:47:37.261Z,10.81
2022-12-08T11:48:54.879Z,10.80
2022-12-08T11:50:19.485Z,10.72
2022-12-08T11:51:38.096Z,10.74
2022-12-08T11:52:46.321Z,10.72
2022-12-08T11:54:12.510Z,10.72
2022-12-08T11:55:14.119Z,10.77
2022-12-08T11:56:34.554Z,10.76
2022-12-08T11:57:36.316Z,10.75
2022-12-08T11:58:47.375Z,10.77
2022-12-08T11:59:51.048Z,10.78
2022-12-08T12:00:52.844Z,10.70
2022-12-08T12:01:54.912Z,10.60
2022-12-08T12:03:09.077Z,10.63
2022-12-08T12:04:36.223Z,10.62
2022-12-08T12:06:18.224Z,10.63
2022-12-08T12:07:51.572Z,10.59
2022-12-08T12:09:08.657Z,10.60
2022-12-08T12:10:13.425Z,10.62
2022-12-08T12:11:59.100Z,10.55
2022-12-08T12:13:32.816Z,10.48
2022-12-08T12:14:57.881Z,10.44
2022-12-08T12:16:36.977Z,10.32
2022-12-08T12:17:53.549Z,10.25
2022-12-08T12:19:01.991Z,10.22
2022-12-08T12:20:09.706Z,10.13
2022-12-08T12:21:20.491Z,10.12
2022-12-08T12:22:24.354Z,10.16
2022-12-08T12:23:44.861Z,10.17
2022-12-08T12:24:50.208Z,10.17
2022-12-08T12:26:03.578Z,10.18
2022-12-08T12:27:19.937Z,10.19
2022-12-08T12:28:26.263Z,10.20
2022-12-08T12:29:35.051Z,10.21
2022-12-08T12:31:15.404Z,10.09
2022-12-08T12:32:17.681Z,10.05
2022-12-08T12:33:20.746Z,10.01
2022-12-08T12:34:34.267Z,9.96
2022-12-08T12:35:42.766Z,9.89
2022-12-08T12:36:56.634Z,9.81
2022-12-08T12:38:25.989Z,9.75
2022-12-08T12:39:31.011Z,9.73
2022-12-08T12:40:41.857Z,9.67
2022-12-08T12:41:48.276Z,9.52
2022-12-08T12:42:56.120Z,9.61
2022-12-08T12:44:07.021Z,9.64
2022-12-08T12:45:22.683Z,9.65
2022-12-08T12:46:24.435Z,9.65
2022-12-08T12:47:44.518Z,9.67
2022-12-08T12:48:46.187Z,9.70
2022-12-08T12:49:50.564Z,9.70
2022-12-08T12:50:55.199Z,9.61
2022-12-08T12:51:56.923Z,9.58
2022-12-08T12:53:20.105Z,9.59
2022-12-08T12:54:24.292Z,9.66
2022-12-08T12:55:29.136Z,9.65
2022-12-08T12:56:48.628Z,9.60
2022-12-08T12:57:56.853Z,9.63
2022-12-08T12:59:22.339Z,9.62
2022-12-08T13:00:26.879Z,9.55
2022-12-08T13:01:49.914Z,9.57
2022-12-08T13:02:53.769Z,9.52
2022-12-08T13:04:09.373Z,9.42
2022-12-08T13:05:20.256Z,9.49
2022-12-08T13:06:32.277Z,9.50
2022-12-08T13:07:56.240Z,9.37
2022-12-08T13:08:59.350Z,9.43
2022-12-08T13:10:15.890Z,9.46
2022-12-08T13:11:17.851Z,9.41
2022-12-08T13:12:24.367Z,9.48
2022-12-08T13:13:26.233Z,9.36
2022-12-08T13:14:27.977Z,9.45
2022-12-08T13:15:36.765Z,9.50
2022-12-08T13:16:39.640Z,9.53
2022-12-08T13:17:45.287Z,9.57
2022-12-08T13:18:52.292Z,9.57
2022-12-08T13:20:00.490Z,9.59
2022-12-08T13:21:21.749Z,9.59
2022-12-08T13:22:54.321Z,9.61
2022-12-08T13:24:12.924Z,9.58
2022-12-08T13:25:39.603Z,9.54
2022-12-08T13:26:44.552Z,9.55
2022-12-08T13:27:53.963Z,9.55
2022-12-08T13:29:01.562Z,9.58
2022-12-08T13:30:41.583Z,9.59
2022-12-08T13:31:59.385Z,9.58
2022-12-08T13:33:18.514Z,9.63
2022-12-08T13:34:29.826Z,9.65
2022-12-08T13:35:32.385Z,9.67
2022-12-08T13:36:40.082Z,9.66
2022-12-08T13:37:54.760Z,9.75
2022-12-08T13:38:58.771Z,9.74
2022-12-08T13:40:10.597Z,9.63
2022-12-08T13:41:26.015Z,9.58
2022-12-08T13:42:43.291Z,9.55
2022-12-08T13:44:31.200Z,9.59
2022-12-08T13:45:33.974Z,9.59
2022-12-08T13:48:55.874Z,9.53
2022-12-08T13:56:59.384Z,9.54
2022-12-08T13:57:32.782Z,9.54
2022-12-08T13:58:36.723Z,9.55
2022-12-08T13:59:44.785Z,9.56
2022-12-08T14:01:05.851Z,9.47
2022-12-08T14:02:20.836Z,9.46
2022-12-08T14:03:22.689Z,9.47
2022-12-08T14:06:11.669Z,9.35
2022-12-08T14:07:10.924Z,9.32
2022-12-08T14:08:57.796Z,9.29
2022-12-08T14:09:49.371Z,9.27
2022-12-08T14:10:58.477Z,9.25
2022-12-08T14:12:18.072Z,9.27
2022-12-08T14:13:19.807Z,9.29
2022-12-08T14:15:00.732Z,9.27
2022-12-08T14:15:51.212Z,9.22
2022-12-08T14:16:56.602Z,9.17
2022-12-08T14:17:58.822Z,9.04
2022-12-08T14:19:06.036Z,9.02
2022-12-08T14:20:27.275Z,9.04
2022-12-08T14:21:34.369Z,8.85
2022-12-08T14:22:40.371Z,8.78
2022-12-08T14:23:44.656Z,8.82
2022-12-08T14:24:51.497Z,8.82
2022-12-08T14:25:53.828Z,8.85
2022-12-08T14:26:59.654Z,8.86
2022-12-08T14:28:04.319Z,8.88
2022-12-08T14:29:09.993Z,8.88
2022-12-08T14:30:14.908Z,8.91
2022-12-08T14:31:17.694Z,8.87
2022-12-08T14:32:22.107Z,8.87
2022-12-08T14:33:23.893Z,8.83
2022-12-08T14:34:25.578Z,8.77
2022-12-08T14:35:31.551Z,8.77
2022-12-08T14:36:33.952Z,8.72
2022-12-08T14:37:37.136Z,8.60
2022-12-08T14:38:39.008Z,8.60
2022-12-08T14:39:40.996Z,8.53
2022-12-08T14:41:09.900Z,8.58
2022-12-08T14:42:27.283Z,8.61
2022-12-08T14:43:30.573Z,8.63
2022-12-08T14:44:35.227Z,8.66
2022-12-08T14:45:43.065Z,8.58
2022-12-08T14:47:18.508Z,8.43
2022-12-08T14:48:36.423Z,8.31
2022-12-08T14:49:40.171Z,8.28
2022-12-08T14:50:46.603Z,8.35